sensor_id;sensor_type;location;lat;lon;timestamp;pressure;altitude;pressure_sealevel;temperature
79495;BMP180;68951;53.130;18.104;2023-07-22T00:54:31;100540.00;;;
79495;BMP180;68951;53.130;18.104;2023-07-22T00:56:57;100534.80;;;
79495;BMP180;68951;53.130;18.104;2023-07-22T00:59:24;100536.00;;;
79495;BMP180;68951;53.130;18.104;2023-07-22T01:01:51;100529.80;;;
79495;BMP180;68951;53.130;18.104;2023-07-22T01:04:20;100535.40;;;
79495;BMP180;68951;53.130;18.104;2023-07-22T01:06:49;100532.80;;;
79495;BMP180;68951;53.130;18.104;2023-07-22T01:09:15;100531.00;;;
79495;BMP180;68951;53.130;18.104;2023-07-22T01:11:42;100531.60;;;
79495;BMP180;68951;53.130;18.104;2023-07-22T01:14:09;100533.60;;;
79495;BMP180;68951;53.130;18.104;2023-07-22T01:16:36;100537.80;;;
79495;BMP180;68951;53.130;18.104;2023-07-22T01:19:03;100539.00;;;
79495;BMP180;68951;53.130;18.104;2023-07-22T01:21:32;100538.60;;;
79495;BMP180;68951;53.130;18.104;2023-07-22T01:23:59;100536.00;;;
79495;BMP180;68951;53.130;18.104;2023-07-22T01:26:25;100530.00;;;
79495;BMP180;68951;53.130;18.104;2023-07-22T01:29:03;100525.40;;;
79495;BMP180;68951;53.130;18.104;2023-07-22T01:31:29;100526.60;;;
79495;BMP180;68951;53.130;18.104;2023-07-22T01:33:55;100522.00;;;
79495;BMP180;68951;53.130;18.104;2023-07-22T01:36:21;100514.40;;;
79495;BMP180;68951;53.130;18.104;2023-07-22T01:38:48;100512.40;;;
79495;BMP180;68951;53.130;18.104;2023-07-22T01:41:14;100508.20;;;
79495;BMP180;68951;53.130;18.104;2023-07-22T01:43:40;100515.80;;;
79495;BMP180;68951;53.130;18.104;2023-07-22T01:46:06;100512.60;;;
79495;BMP180;68951;53.130;18.104;2023-07-22T01:48:33;100510.60;;;
79495;BMP180;68951;53.130;18.104;2023-07-22T01:50:59;100507.00;;;
79495;BMP180;68951;53.130;18.104;2023-07-22T01:53:26;100512.80;;;
79495;BMP180;68951;53.130;18.104;2023-07-22T01:55:52;100518.20;;;
79495;BMP180;68951;53.130;18.104;2023-07-22T01:58:18;100510.20;;;
79495;BMP180;68951;53.130;18.104;2023-07-22T02:00:49;100496.40;;;
79495;BMP180;68951;53.130;18.104;2023-07-22T02:03:15;100498.40;;;
79495;BMP180;68951;53.130;18.104;2023-07-22T02:05:41;100498.20;;;
79495;BMP180;68951;53.130;18.104;2023-07-22T02:08:08;100510.00;;;
79495;BMP180;68951;53.130;18.104;2023-07-22T02:10:34;100509.40;;;
79495;BMP180;68951;53.130;18.104;2023-07-22T02:13:00;100502.60;;;
79495;BMP180;68951;53.130;18.104;2023-07-22T02:15:26;100505.00;;;
79495;BMP180;68951;53.130;18.104;2023-07-22T02:17:53;100504.40;;;
79495;BMP180;68951;53.130;18.104;2023-07-22T02:20:21;100503.80;;;
79495;BMP180;68951;53.130;18.104;2023-07-22T02:22:47;100498.40;;;
79495;BMP180;68951;53.130;18.104;2023-07-22T02:25:14;100492.80;;;
79495;BMP180;68951;53.130;18.104;2023-07-22T02:27:41;100493.20;;;
79495;BMP180;68951;53.130;18.104;2023-07-22T02:30:08;100487.40;;;
79495;BMP180;68951;53.130;18.104;2023-07-22T02:32:40;100492.20;;;
79495;BMP180;68951;53.130;18.104;2023-07-22T02:35:07;100494.00;;;
79495;BMP180;68951;53.130;18.104;2023-07-22T02:37:37;100489.00;;;
79495;BMP180;68951;53.130;18.104;2023-07-22T02:40:04;100490.20;;;
79495;BMP180;68951;53.130;18.104;2023-07-22T02:42:38;100495.40;;;
79495;BMP180;68951;53.130;18.104;2023-07-22T02:45:04;100503.20;;;
79495;BMP180;68951;53.130;18.104;2023-07-22T02:47:34;100503.60;;;
79495;BMP180;68951;53.130;18.104;2023-07-22T02:50:02;100507.20;;;
79495;BMP180;68951;53.130;18.104;2023-07-22T02:52:29;100509.80;;;
79495;BMP180;68951;53.130;18.104;2023-07-22T02:55:13;100513.00;;;
79495;BMP180;68951;53.130;18.104;2023-07-22T02:57:41;100513.80;;;
79495;BMP180;68951;53.130;18.104;2023-07-22T03:00:09;100511.20;;;
79495;BMP180;68951;53.130;18.104;2023-07-22T03:02:39;100514.00;;;
79495;BMP180;68951;53.130;18.104;2023-07-22T03:05:07;100515.20;;;
79495;BMP180;68951;53.130;18.104;2023-07-22T03:07:35;100519.60;;;
79495;BMP180;68951;53.130;18.104;2023-07-22T03:10:01;100519.60;;;
79495;BMP180;68951;53.130;18.104;2023-07-22T03:12:28;100524.00;;;
79495;BMP180;68951;53.130;18.104;2023-07-22T03:14:54;100523.20;;;
79495;BMP180;68951;53.130;18.104;2023-07-22T03:17:21;100525.00;;;
79495;BMP180;68951;53.130;18.104;2023-07-22T03:19:47;100523.80;;;
79495;BMP180;68951;53.130;18.104;2023-07-22T03:22:15;100518.40;;;
79495;BMP180;68951;53.130;18.104;2023-07-22T03:24:45;100524.20;;;
79495;BMP180;68951;53.130;18.104;2023-07-22T03:27:14;100524.60;;;
79495;BMP180;68951;53.130;18.104;2023-07-22T03:29:41;100526.60;;;
79495;BMP180;68951;53.130;18.104;2023-07-22T03:32:07;100525.40;;;
79495;BMP180;68951;53.130;18.104;2023-07-22T03:34:34;100526.00;;;
79495;BMP180;68951;53.130;18.104;2023-07-22T03:37:01;100527.00;;;
79495;BMP180;68951;53.130;18.104;2023-07-22T03:39:27;100527.20;;;
79495;BMP180;68951;53.130;18.104;2023-07-22T03:41:53;100531.60;;;
79495;BMP180;68951;53.130;18.104;2023-07-22T03:44:19;100529.20;;;
79495;BMP180;68951;53.130;18.104;2023-07-22T03:46:46;100524.80;;;
79495;BMP180;68951;53.130;18.104;2023-07-22T03:49:12;100530.40;;;
79495;BMP180;68951;53.130;18.104;2023-07-22T03:51:38;100529.80;;;
79495;BMP180;68951;53.130;18.104;2023-07-22T03:54:04;100531.80;;;
79495;BMP180;68951;53.130;18.104;2023-07-22T03:56:30;100531.20;;;
79495;BMP180;68951;53.130;18.104;2023-07-22T03:58:56;100537.20;;;
79495;BMP180;68951;53.130;18.104;2023-07-22T04:01:22;100538.20;;;
79495;BMP180;68951;53.130;18.104;2023-07-22T04:03:48;100540.20;;;
79495;BMP180;68951;53.130;18.104;2023-07-22T04:06:15;100539.40;;;
79495;BMP180;68951;53.130;18.104;2023-07-22T04:08:41;100540.40;;;
79495;BMP180;68951;53.130;18.104;2023-07-22T04:11:07;100534.00;;;
79495;BMP180;68951;53.130;18.104;2023-07-22T04:13:33;100535.40;;;
79495;BMP180;68951;53.130;18.104;2023-07-22T04:15:59;100532.00;;;
79495;BMP180;68951;53.130;18.104;2023-07-22T04:18:25;100530.60;;;
79495;BMP180;68951;53.130;18.104;2023-07-22T04:20:56;100539.20;;;
79495;BMP180;68951;53.130;18.104;2023-07-22T04:23:23;100538.60;;;
79495;BMP180;68951;53.130;18.104;2023-07-22T04:25:49;100535.20;;;
79495;BMP180;68951;53.130;18.104;2023-07-22T04:28:15;100533.20;;;
79495;BMP180;68951;53.130;18.104;2023-07-22T04:30:42;100535.80;;;
79495;BMP180;68951;53.130;18.104;2023-07-22T04:33:08;100541.80;;;
79495;BMP180;68951;53.130;18.104;2023-07-22T04:35:42;100536.20;;;
79495;BMP180;68951;53.130;18.104;2023-07-22T04:38:08;100540.20;;;
79495;BMP180;68951;53.130;18.104;2023-07-22T04:40:34;100542.60;;;
79495;BMP180;68951;53.130;18.104;2023-07-22T04:43:00;100542.20;;;
79495;BMP180;68951;53.130;18.104;2023-07-22T04:45:27;100544.40;;;
79495;BMP180;68951;53.130;18.104;2023-07-22T04:47:53;100543.20;;;
79495;BMP180;68951;53.130;18.104;2023-07-22T04:50:20;100545.60;;;
79495;BMP180;68951;53.130;18.104;2023-07-22T04:52:47;100544.20;;;
79495;BMP180;68951;53.130;18.104;2023-07-22T04:55:14;100545.40;;;
79495;BMP180;68951;53.130;18.104;2023-07-22T04:57:42;100552.20;;;
79495;BMP180;68951;53.130;18.104;2023-07-22T05:00:09;100554.60;;;
79495;BMP180;68951;53.130;18.104;2023-07-22T05:02:35;100551.20;;;
79495;BMP180;68951;53.130;18.104;2023-07-22T05:05:01;100550.20;;;
79495;BMP180;68951;53.130;18.104;2023-07-22T05:07:28;100551.00;;;
79495;BMP180;68951;53.130;18.104;2023-07-22T05:09:54;100548.20;;;
79495;BMP180;68951;53.130;18.104;2023-07-22T05:12:20;100551.80;;;
79495;BMP180;68951;53.130;18.104;2023-07-22T05:14:46;100553.20;;;
79495;BMP180;68951;53.130;18.104;2023-07-22T05:17:13;100553.60;;;
79495;BMP180;68951;53.130;18.104;2023-07-22T05:19:39;100558.00;;;
79495;BMP180;68951;53.130;18.104;2023-07-22T05:22:05;100550.40;;;
79495;BMP180;68951;53.130;18.104;2023-07-22T05:24:31;100552.00;;;
79495;BMP180;68951;53.130;18.104;2023-07-22T05:26:58;100547.20;;;
79495;BMP180;68951;53.130;18.104;2023-07-22T05:29:24;100552.20;;;
79495;BMP180;68951;53.130;18.104;2023-07-22T05:31:50;100543.60;;;
79495;BMP180;68951;53.130;18.104;2023-07-22T05:34:16;100547.00;;;
79495;BMP180;68951;53.130;18.104;2023-07-22T05:36:42;100552.40;;;
79495;BMP180;68951;53.130;18.104;2023-07-22T05:39:08;100543.00;;;
79495;BMP180;68951;53.130;18.104;2023-07-22T05:41:35;100544.60;;;
79495;BMP180;68951;53.130;18.104;2023-07-22T05:44:01;100545.60;;;
79495;BMP180;68951;53.130;18.104;2023-07-22T05:46:27;100544.80;;;
79495;BMP180;68951;53.130;18.104;2023-07-22T05:48:53;100546.60;;;
79495;BMP180;68951;53.130;18.104;2023-07-22T05:51:19;100540.60;;;
79495;BMP180;68951;53.130;18.104;2023-07-22T05:53:46;100539.40;;;
79495;BMP180;68951;53.130;18.104;2023-07-22T05:56:12;100535.80;;;
79495;BMP180;68951;53.130;18.104;2023-07-22T05:58:38;100531.60;;;
79495;BMP180;68951;53.130;18.104;2023-07-22T06:01:04;100528.80;;;
79495;BMP180;68951;53.130;18.104;2023-07-22T06:03:31;100532.40;;;
79495;BMP180;68951;53.130;18.104;2023-07-22T06:05:57;100535.20;;;
79495;BMP180;68951;53.130;18.104;2023-07-22T06:08:23;100538.20;;;
79495;BMP180;68951;53.130;18.104;2023-07-22T06:10:49;100531.40;;;
79495;BMP180;68951;53.130;18.104;2023-07-22T06:13:16;100532.00;;;
79495;BMP180;68951;53.130;18.104;2023-07-22T06:15:42;100528.80;;;
79495;BMP180;68951;53.130;18.104;2023-07-22T06:18:08;100528.60;;;
79495;BMP180;68951;53.130;18.104;2023-07-22T06:20:35;100544.20;;;
79495;BMP180;68951;53.130;18.104;2023-07-22T06:23:02;100551.60;;;
79495;BMP180;68951;53.130;18.104;2023-07-22T06:25:28;100550.60;;;
79495;BMP180;68951;53.130;18.104;2023-07-22T06:27:55;100548.40;;;
79495;BMP180;68951;53.130;18.104;2023-07-22T06:30:21;100540.00;;;
79495;BMP180;68951;53.130;18.104;2023-07-22T06:32:48;100542.60;;;
79495;BMP180;68951;53.130;18.104;2023-07-22T06:35:14;100533.40;;;
79495;BMP180;68951;53.130;18.104;2023-07-22T06:37:40;100541.20;;;
79495;BMP180;68951;53.130;18.104;2023-07-22T06:40:07;100547.60;;;
79495;BMP180;68951;53.130;18.104;2023-07-22T06:42:34;100544.00;;;
79495;BMP180;68951;53.130;18.104;2023-07-22T06:45:00;100547.60;;;
79495;BMP180;68951;53.130;18.104;2023-07-22T06:47:26;100549.80;;;
79495;BMP180;68951;53.130;18.104;2023-07-22T06:49:52;100546.80;;;
79495;BMP180;68951;53.130;18.104;2023-07-22T06:52:19;100551.40;;;
79495;BMP180;68951;53.130;18.104;2023-07-22T06:54:45;100548.80;;;
79495;BMP180;68951;53.130;18.104;2023-07-22T06:57:12;100546.40;;;
79495;BMP180;68951;53.130;18.104;2023-07-22T06:59:38;100553.60;;;
79495;BMP180;68951;53.130;18.104;2023-07-22T07:02:05;100554.80;;;
79495;BMP180;68951;53.130;18.104;2023-07-22T07:04:31;100552.80;;;
79495;BMP180;68951;53.130;18.104;2023-07-22T07:06:57;100556.40;;;
79495;BMP180;68951;53.130;18.104;2023-07-22T07:09:23;100554.00;;;
79495;BMP180;68951;53.130;18.104;2023-07-22T07:11:49;100553.20;;;
79495;BMP180;68951;53.130;18.104;2023-07-22T07:14:15;100558.60;;;
79495;BMP180;68951;53.130;18.104;2023-07-22T07:16:42;100565.00;;;
79495;BMP180;68951;53.130;18.104;2023-07-22T07:19:08;100562.60;;;
79495;BMP180;68951;53.130;18.104;2023-07-22T07:21:34;100559.60;;;
79495;BMP180;68951;53.130;18.104;2023-07-22T07:24:00;100559.20;;;
79495;BMP180;68951;53.130;18.104;2023-07-22T07:26:28;100554.20;;;
79495;BMP180;68951;53.130;18.104;2023-07-22T07:28:54;100563.60;;;
79495;BMP180;68951;53.130;18.104;2023-07-22T07:31:21;100560.20;;;
79495;BMP180;68951;53.130;18.104;2023-07-22T07:33:48;100569.00;;;
79495;BMP180;68951;53.130;18.104;2023-07-22T07:36:14;100567.20;;;
79495;BMP180;68951;53.130;18.104;2023-07-22T07:38:40;100575.00;;;
79495;BMP180;68951;53.130;18.104;2023-07-22T07:41:07;100576.00;;;
79495;BMP180;68951;53.130;18.104;2023-07-22T07:43:41;100577.00;;;
79495;BMP180;68951;53.130;18.104;2023-07-22T07:48:59;100584.60;;;
79495;BMP180;68951;53.130;18.104;2023-07-22T07:51:29;100584.00;;;
79495;BMP180;68951;53.130;18.104;2023-07-22T07:53:57;100581.20;;;
79495;BMP180;68951;53.130;18.104;2023-07-22T07:56:24;100583.80;;;
79495;BMP180;68951;53.130;18.104;2023-07-22T07:58:53;100587.60;;;
79495;BMP180;68951;53.130;18.104;2023-07-22T08:01:19;100593.60;;;
79495;BMP180;68951;53.130;18.104;2023-07-22T08:03:47;100580.40;;;
79495;BMP180;68951;53.130;18.104;2023-07-22T08:06:13;100589.80;;;
79495;BMP180;68951;53.130;18.104;2023-07-22T08:08:40;100584.40;;;
79495;BMP180;68951;53.130;18.104;2023-07-22T08:11:12;100590.40;;;
79495;BMP180;68951;53.130;18.104;2023-07-22T08:13:43;100592.20;;;
79495;BMP180;68951;53.130;18.104;2023-07-22T08:16:13;100607.20;;;
79495;BMP180;68951;53.130;18.104;2023-07-22T08:18:40;100596.40;;;
79495;BMP180;68951;53.130;18.104;2023-07-22T08:21:07;100602.40;;;
79495;BMP180;68951;53.130;18.104;2023-07-22T08:23:34;100604.60;;;
79495;BMP180;68951;53.130;18.104;2023-07-22T08:26:00;100607.00;;;
79495;BMP180;68951;53.130;18.104;2023-07-22T08:28:27;100605.80;;;
79495;BMP180;68951;53.130;18.104;2023-07-22T08:30:57;100613.60;;;
79495;BMP180;68951;53.130;18.104;2023-07-22T08:33:24;100612.00;;;
79495;BMP180;68951;53.130;18.104;2023-07-22T08:35:51;100608.20;;;
79495;BMP180;68951;53.130;18.104;2023-07-22T08:38:17;100612.40;;;
79495;BMP180;68951;53.130;18.104;2023-07-22T08:40:44;100616.00;;;
79495;BMP180;68951;53.130;18.104;2023-07-22T08:43:11;100619.80;;;
79495;BMP180;68951;53.130;18.104;2023-07-22T08:45:38;100615.60;;;
79495;BMP180;68951;53.130;18.104;2023-07-22T08:48:08;100625.40;;;
79495;BMP180;68951;53.130;18.104;2023-07-22T08:50:54;100633.00;;;
79495;BMP180;68951;53.130;18.104;2023-07-22T08:53:23;100631.60;;;
79495;BMP180;68951;53.130;18.104;2023-07-22T08:55:53;100643.00;;;
79495;BMP180;68951;53.130;18.104;2023-07-22T08:58:20;100641.00;;;
79495;BMP180;68951;53.130;18.104;2023-07-22T09:00:48;100640.00;;;
79495;BMP180;68951;53.130;18.104;2023-07-22T09:03:16;100639.80;;;
79495;BMP180;68951;53.130;18.104;2023-07-22T09:05:43;100639.20;;;
79495;BMP180;68951;53.130;18.104;2023-07-22T09:08:10;100651.20;;;
79495;BMP180;68951;53.130;18.104;2023-07-22T09:10:37;100653.60;;;
79495;BMP180;68951;53.130;18.104;2023-07-22T09:13:05;100643.60;;;
79495;BMP180;68951;53.130;18.104;2023-07-22T09:15:35;100644.80;;;
79495;BMP180;68951;53.130;18.104;2023-07-22T09:18:04;100650.00;;;
79495;BMP180;68951;53.130;18.104;2023-07-22T09:20:30;100651.80;;;
79495;BMP180;68951;53.130;18.104;2023-07-22T09:22:59;100650.00;;;
79495;BMP180;68951;53.130;18.104;2023-07-22T09:25:28;100649.60;;;
79495;BMP180;68951;53.130;18.104;2023-07-22T09:27:58;100654.80;;;
79495;BMP180;68951;53.130;18.104;2023-07-22T09:30:35;100665.40;;;
79495;BMP180;68951;53.130;18.104;2023-07-22T09:33:03;100668.20;;;
79495;BMP180;68951;53.130;18.104;2023-07-22T09:35:48;100667.80;;;
79495;BMP180;68951;53.130;18.104;2023-07-22T09:38:23;100666.60;;;
79495;BMP180;68951;53.130;18.104;2023-07-22T09:40:50;100674.40;;;
79495;BMP180;68951;53.130;18.104;2023-07-22T09:43:16;100673.00;;;
79495;BMP180;68951;53.130;18.104;2023-07-22T09:45:47;100674.00;;;
79495;BMP180;68951;53.130;18.104;2023-07-22T09:48:15;100682.60;;;
79495;BMP180;68951;53.130;18.104;2023-07-22T09:50:41;100678.40;;;
79495;BMP180;68951;53.130;18.104;2023-07-22T09:53:08;100679.80;;;
79495;BMP180;68951;53.130;18.104;2023-07-22T09:55:34;100681.20;;;
79495;BMP180;68951;53.130;18.104;2023-07-22T09:58:04;100689.20;;;
79495;BMP180;68951;53.130;18.104;2023-07-22T10:00:37;100696.20;;;
79495;BMP180;68951;53.130;18.104;2023-07-22T10:03:10;100692.80;;;
79495;BMP180;68951;53.130;18.104;2023-07-22T10:05:38;100695.20;;;
79495;BMP180;68951;53.130;18.104;2023-07-22T10:08:06;100700.40;;;
79495;BMP180;68951;53.130;18.104;2023-07-22T10:10:37;100702.60;;;
79495;BMP180;68951;53.130;18.104;2023-07-22T10:13:04;100703.80;;;
79495;BMP180;68951;53.130;18.104;2023-07-22T10:15:34;100715.20;;;
79495;BMP180;68951;53.130;18.104;2023-07-22T10:18:03;100721.80;;;
79495;BMP180;68951;53.130;18.104;2023-07-22T10:20:30;100711.80;;;
79495;BMP180;68951;53.130;18.104;2023-07-22T10:23:00;100708.40;;;
79495;BMP180;68951;53.130;18.104;2023-07-22T10:25:28;100713.20;;;
79495;BMP180;68951;53.130;18.104;2023-07-22T10:27:55;100725.80;;;
79495;BMP180;68951;53.130;18.104;2023-07-22T10:30:21;100709.20;;;
79495;BMP180;68951;53.130;18.104;2023-07-22T10:32:51;100710.40;;;
79495;BMP180;68951;53.130;18.104;2023-07-22T10:38:14;100721.20;;;
79495;BMP180;68951;53.130;18.104;2023-07-22T10:40:55;100716.20;;;
79495;BMP180;68951;53.130;18.104;2023-07-22T10:43:33;100710.20;;;
79495;BMP180;68951;53.130;18.104;2023-07-22T10:46:11;100710.80;;;
79495;BMP180;68951;53.130;18.104;2023-07-22T10:48:42;100710.80;;;
79495;BMP180;68951;53.130;18.104;2023-07-22T10:51:13;100711.60;;;
79495;BMP180;68951;53.130;18.104;2023-07-22T10:53:48;100706.40;;;
79495;BMP180;68951;53.130;18.104;2023-07-22T10:56:22;100704.80;;;
79495;BMP180;68951;53.130;18.104;2023-07-22T11:06:52;100708.00;;;
79495;BMP180;68951;53.130;18.104;2023-07-22T11:09:47;100716.60;;;
79495;BMP180;68951;53.130;18.104;2023-07-22T11:12:17;100723.20;;;
79495;BMP180;68951;53.130;18.104;2023-07-22T11:14:53;100722.20;;;
79495;BMP180;68951;53.130;18.104;2023-07-22T11:17:32;100718.20;;;
79495;BMP180;68951;53.130;18.104;2023-07-22T11:20:01;100721.20;;;
79495;BMP180;68951;53.130;18.104;2023-07-22T11:22:27;100721.60;;;
79495;BMP180;68951;53.130;18.104;2023-07-22T11:24:57;100726.00;;;
79495;BMP180;68951;53.130;18.104;2023-07-22T11:27:24;100724.00;;;
79495;BMP180;68951;53.130;18.104;2023-07-22T11:29:50;100723.40;;;
79495;BMP180;68951;53.130;18.104;2023-07-22T11:32:18;100712.60;;;
79495;BMP180;68951;53.130;18.104;2023-07-22T11:34:48;100712.00;;;
79495;BMP180;68951;53.130;18.104;2023-07-22T11:37:14;100709.00;;;
79495;BMP180;68951;53.130;18.104;2023-07-22T11:39:41;100709.80;;;
79495;BMP180;68951;53.130;18.104;2023-07-22T11:42:11;100706.20;;;
79495;BMP180;68951;53.130;18.104;2023-07-22T11:44:38;100720.80;;;
79495;BMP180;68951;53.130;18.104;2023-07-22T11:47:07;100707.80;;;
79495;BMP180;68951;53.130;18.104;2023-07-22T11:49:41;100719.60;;;
79495;BMP180;68951;53.130;18.104;2023-07-22T11:52:17;100721.60;;;
79495;BMP180;68951;53.130;18.104;2023-07-22T11:54:47;100723.00;;;
79495;BMP180;68951;53.130;18.104;2023-07-22T11:57:18;100722.80;;;
79495;BMP180;68951;53.130;18.104;2023-07-22T11:59:47;100723.20;;;
79495;BMP180;68951;53.130;18.104;2023-07-22T12:05:00;100734.40;;;
79495;BMP180;68951;53.130;18.104;2023-07-22T12:07:38;100727.60;;;
79495;BMP180;68951;53.130;18.104;2023-07-22T12:10:07;100729.00;;;
79495;BMP180;68951;53.130;18.104;2023-07-22T12:12:40;100733.20;;;
79495;BMP180;68951;53.130;18.104;2023-07-22T12:15:13;100735.20;;;
79495;BMP180;68951;53.130;18.104;2023-07-22T12:20:14;100730.80;;;
79495;BMP180;68951;53.130;18.104;2023-07-22T12:22:41;100725.00;;;
79495;BMP180;68951;53.130;18.104;2023-07-22T12:25:09;100723.00;;;
79495;BMP180;68951;53.130;18.104;2023-07-22T12:27:37;100724.00;;;
79495;BMP180;68951;53.130;18.104;2023-07-22T12:30:04;100725.40;;;
79495;BMP180;68951;53.130;18.104;2023-07-22T12:32:31;100717.60;;;
79495;BMP180;68951;53.130;18.104;2023-07-22T12:34:57;100719.40;;;
79495;BMP180;68951;53.130;18.104;2023-07-22T12:37:23;100726.20;;;
79495;BMP180;68951;53.130;18.104;2023-07-22T12:39:49;100729.00;;;
79495;BMP180;68951;53.130;18.104;2023-07-22T12:42:15;100735.00;;;
79495;BMP180;68951;53.130;18.104;2023-07-22T12:44:42;100721.60;;;
79495;BMP180;68951;53.130;18.104;2023-07-22T12:47:08;100737.20;;;
79495;BMP180;68951;53.130;18.104;2023-07-22T12:49:34;100738.00;;;
79495;BMP180;68951;53.130;18.104;2023-07-22T12:52:00;100743.40;;;
79495;BMP180;68951;53.130;18.104;2023-07-22T12:54:31;100739.40;;;
79495;BMP180;68951;53.130;18.104;2023-07-22T12:56:57;100743.60;;;
79495;BMP180;68951;53.130;18.104;2023-07-22T12:59:23;100744.80;;;
79495;BMP180;68951;53.130;18.104;2023-07-22T13:01:49;100747.20;;;
79495;BMP180;68951;53.130;18.104;2023-07-22T13:04:15;100739.40;;;
79495;BMP180;68951;53.130;18.104;2023-07-22T13:06:42;100739.00;;;
79495;BMP180;68951;53.130;18.104;2023-07-22T13:09:08;100740.00;;;
79495;BMP180;68951;53.130;18.104;2023-07-22T13:11:35;100744.60;;;
79495;BMP180;68951;53.130;18.104;2023-07-22T13:14:02;100741.00;;;
79495;BMP180;68951;53.130;18.104;2023-07-22T13:16:28;100737.40;;;
79495;BMP180;68951;53.130;18.104;2023-07-22T13:18:54;100733.80;;;
79495;BMP180;68951;53.130;18.104;2023-07-22T13:21:21;100738.00;;;
79495;BMP180;68951;53.130;18.104;2023-07-22T13:23:47;100742.20;;;
79495;BMP180;68951;53.130;18.104;2023-07-22T13:26:14;100735.00;;;
79495;BMP180;68951;53.130;18.104;2023-07-22T13:28:40;100747.00;;;
79495;BMP180;68951;53.130;18.104;2023-07-22T13:31:06;100751.80;;;
79495;BMP180;68951;53.130;18.104;2023-07-22T13:33:33;100744.80;;;
79495;BMP180;68951;53.130;18.104;2023-07-22T13:35:59;100738.00;;;
79495;BMP180;68951;53.130;18.104;2023-07-22T13:38:25;100739.00;;;
79495;BMP180;68951;53.130;18.104;2023-07-22T13:40:52;100736.40;;;
79495;BMP180;68951;53.130;18.104;2023-07-22T13:43:18;100754.60;;;
79495;BMP180;68951;53.130;18.104;2023-07-22T13:45:44;100747.60;;;
79495;BMP180;68951;53.130;18.104;2023-07-22T13:48:10;100746.00;;;
79495;BMP180;68951;53.130;18.104;2023-07-22T13:50:37;100742.60;;;
79495;BMP180;68951;53.130;18.104;2023-07-22T13:53:04;100739.60;;;
79495;BMP180;68951;53.130;18.104;2023-07-22T13:55:30;100748.00;;;
79495;BMP180;68951;53.130;18.104;2023-07-22T13:57:56;100734.60;;;
79495;BMP180;68951;53.130;18.104;2023-07-22T14:00:22;100732.60;;;
79495;BMP180;68951;53.130;18.104;2023-07-22T14:02:48;100748.20;;;
79495;BMP180;68951;53.130;18.104;2023-07-22T14:05:15;100746.20;;;
79495;BMP180;68951;53.130;18.104;2023-07-22T14:07:41;100748.80;;;
79495;BMP180;68951;53.130;18.104;2023-07-22T14:10:07;100744.00;;;
79495;BMP180;68951;53.130;18.104;2023-07-22T14:12:35;100736.40;;;
79495;BMP180;68951;53.130;18.104;2023-07-22T14:15:02;100744.20;;;
79495;BMP180;68951;53.130;18.104;2023-07-22T14:17:30;100746.40;;;
79495;BMP180;68951;53.130;18.104;2023-07-22T14:19:58;100745.40;;;
79495;BMP180;68951;53.130;18.104;2023-07-22T14:22:25;100742.40;;;
79495;BMP180;68951;53.130;18.104;2023-07-22T14:24:51;100743.00;;;
79495;BMP180;68951;53.130;18.104;2023-07-22T14:27:18;100744.00;;;
79495;BMP180;68951;53.130;18.104;2023-07-22T14:29:44;100737.60;;;
79495;BMP180;68951;53.130;18.104;2023-07-22T14:32:10;100740.80;;;
79495;BMP180;68951;53.130;18.104;2023-07-22T14:34:37;100739.80;;;
79495;BMP180;68951;53.130;18.104;2023-07-22T14:37:05;100732.80;;;
79495;BMP180;68951;53.130;18.104;2023-07-22T14:39:34;100730.20;;;
79495;BMP180;68951;53.130;18.104;2023-07-22T14:42:00;100735.60;;;
79495;BMP180;68951;53.130;18.104;2023-07-22T14:44:27;100740.40;;;
79495;BMP180;68951;53.130;18.104;2023-07-22T14:46:53;100746.00;;;
79495;BMP180;68951;53.130;18.104;2023-07-22T14:49:19;100742.20;;;
79495;BMP180;68951;53.130;18.104;2023-07-22T14:51:45;100740.40;;;
79495;BMP180;68951;53.130;18.104;2023-07-22T14:54:11;100748.60;;;
79495;BMP180;68951;53.130;18.104;2023-07-22T14:56:37;100736.80;;;
79495;BMP180;68951;53.130;18.104;2023-07-22T14:59:03;100752.80;;;
79495;BMP180;68951;53.130;18.104;2023-07-22T15:01:38;100736.20;;;
79495;BMP180;68951;53.130;18.104;2023-07-22T15:04:05;100735.00;;;
79495;BMP180;68951;53.130;18.104;2023-07-22T15:06:32;100727.20;;;
79495;BMP180;68951;53.130;18.104;2023-07-22T15:09:00;100738.60;;;
79495;BMP180;68951;53.130;18.104;2023-07-22T15:11:26;100728.60;;;
79495;BMP180;68951;53.130;18.104;2023-07-22T15:13:53;100733.80;;;
79495;BMP180;68951;53.130;18.104;2023-07-22T15:16:19;100738.20;;;
79495;BMP180;68951;53.130;18.104;2023-07-22T15:18:45;100743.60;;;
79495;BMP180;68951;53.130;18.104;2023-07-22T15:21:12;100743.00;;;
79495;BMP180;68951;53.130;18.104;2023-07-22T15:23:38;100738.40;;;
79495;BMP180;68951;53.130;18.104;2023-07-22T15:26:04;100752.40;;;
79495;BMP180;68951;53.130;18.104;2023-07-22T15:28:30;100743.80;;;
79495;BMP180;68951;53.130;18.104;2023-07-22T15:30:56;100739.20;;;
79495;BMP180;68951;53.130;18.104;2023-07-22T15:33:22;100743.80;;;
79495;BMP180;68951;53.130;18.104;2023-07-22T15:35:49;100742.40;;;
79495;BMP180;68951;53.130;18.104;2023-07-22T15:38:15;100740.00;;;
79495;BMP180;68951;53.130;18.104;2023-07-22T15:40:41;100737.20;;;
79495;BMP180;68951;53.130;18.104;2023-07-22T15:43:07;100747.80;;;
79495;BMP180;68951;53.130;18.104;2023-07-22T15:45:33;100740.40;;;
79495;BMP180;68951;53.130;18.104;2023-07-22T15:47:59;100737.60;;;
79495;BMP180;68951;53.130;18.104;2023-07-22T15:50:26;100750.40;;;
79495;BMP180;68951;53.130;18.104;2023-07-22T15:52:52;100754.20;;;
79495;BMP180;68951;53.130;18.104;2023-07-22T15:55:20;100754.60;;;
79495;BMP180;68951;53.130;18.104;2023-07-22T15:57:47;100757.60;;;
79495;BMP180;68951;53.130;18.104;2023-07-22T16:00:13;100753.20;;;
79495;BMP180;68951;53.130;18.104;2023-07-22T16:02:40;100762.00;;;